createdAt,value
2023-04-03T00:01:57.320Z,1.26
2023-04-03T00:06:58.815Z,1.34
2023-04-03T00:12:00.288Z,1.34
2023-04-03T00:17:03.149Z,1.44
2023-04-03T00:22:04.655Z,1.48
2023-04-03T00:27:06.168Z,1.14
2023-04-03T00:32:09.080Z,1.44
2023-04-03T00:37:10.744Z,1.28
2023-04-03T00:42:12.444Z,1.41
2023-04-03T00:47:18.055Z,1.58
2023-04-03T00:52:23.655Z,1.57
2023-04-03T00:57:25.662Z,1.53
2023-04-03T01:02:28.719Z,1.57
2023-04-03T01:07:32.174Z,0.89
2023-04-03T01:12:37.068Z,1.26
2023-04-03T01:17:41.926Z,1.37
2023-04-03T01:22:47.921Z,1.32
2023-04-03T01:27:49.508Z,1.21
2023-04-03T01:32:52.417Z,1.51
2023-04-03T01:37:53.978Z,1.29
2023-04-03T01:42:55.510Z,1.15
2023-04-03T01:47:58.380Z,1.29
2023-04-03T01:53:00.034Z,1.36
2023-04-03T01:58:01.598Z,0.70
2023-04-03T02:03:04.664Z,0.91
2023-04-03T02:08:06.255Z,1.06
2023-04-03T02:13:07.774Z,0.78
2023-04-03T02:18:10.625Z,0.97
2023-04-03T02:23:12.063Z,0.77
2023-04-03T02:28:13.513Z,0.49
2023-04-03T02:33:16.349Z,0.40
2023-04-03T02:38:17.899Z,0.38
2023-04-03T02:43:19.528Z,0.89
2023-04-03T02:48:22.361Z,0.52
2023-04-03T02:53:23.838Z,0.69
2023-04-03T02:58:25.514Z,0.68
2023-04-03T03:03:28.363Z,0.74
2023-04-03T03:08:29.962Z,1.08
2023-04-03T03:13:32.120Z,0.55
2023-04-03T03:18:35.109Z,0.50
2023-04-03T03:23:36.711Z,0.25
2023-04-03T03:28:39.770Z,0.72
2023-04-03T03:33:42.742Z,0.07
2023-04-03T03:38:44.299Z,0.23
2023-04-03T03:43:45.790Z,0.20
2023-04-03T03:48:48.592Z,0.15
2023-04-03T03:53:50.082Z,0.61
2023-04-03T03:58:51.658Z,0.79
2023-04-03T04:03:54.501Z,0.31
2023-04-03T04:08:56.007Z,0.16
2023-04-03T04:13:57.457Z,0.28
2023-04-03T04:19:00.259Z,0.61
2023-04-03T04:24:01.937Z,0.11
2023-04-03T04:29:03.569Z,0.05
2023-04-03T04:34:06.462Z,-0.01
2023-04-03T04:39:08.083Z,0.51
2023-04-03T04:44:09.598Z,0.47
2023-04-03T04:49:12.418Z,0.31
2023-04-03T04:54:14.108Z,0.82
2023-04-03T04:59:15.761Z,0.09
2023-04-03T05:04:18.845Z,0.32
2023-04-03T05:09:20.691Z,0.12
2023-04-03T05:14:22.132Z,0.32
2023-04-03T05:19:25.112Z,0.08
2023-04-03T05:24:26.606Z,0.28
2023-04-03T05:29:28.124Z,0.43
2023-04-03T05:34:31.039Z,0.73
2023-04-03T05:39:32.663Z,0.17
2023-04-03T05:44:34.363Z,0.57
2023-04-03T05:49:37.242Z,0.32
2023-04-03T05:54:39.173Z,0.32
2023-04-03T05:59:40.730Z,0.09
2023-04-03T06:04:44.253Z,0.15
2023-04-03T06:09:45.981Z,0.18
2023-04-03T06:14:47.612Z,0.48
2023-04-03T06:19:50.492Z,0.33
2023-04-03T06:24:52.026Z,0.09
2023-04-03T06:29:53.513Z,0.45
2023-04-03T06:34:56.301Z,0.24
2023-04-03T06:39:57.797Z,0.22
2023-04-03T06:44:59.379Z,0.07
2023-04-03T06:50:02.274Z,0.17
2023-04-03T06:55:04.301Z,0.18
2023-04-03T07:00:07.392Z,0.25
2023-04-03T07:05:10.378Z,0.54
2023-04-03T07:10:11.826Z,0.59
2023-04-03T07:15:13.372Z,0.66
2023-04-03T07:20:16.394Z,0.95
2023-04-03T07:25:18.106Z,0.74
2023-04-03T07:30:19.543Z,1.11
2023-04-03T07:35:22.773Z,1.11
2023-04-03T07:40:25.971Z,1.25
2023-04-03T07:45:27.761Z,0.99
2023-04-03T07:50:30.545Z,1.24
2023-04-03T07:55:34.852Z,0.84
2023-04-03T08:00:36.656Z,1.41
2023-04-03T08:05:40.806Z,1.70
2023-04-03T08:10:42.624Z,1.41
2023-04-03T08:15:44.145Z,2.07
2023-04-03T08:20:46.982Z,1.42
2023-04-03T08:25:48.507Z,1.65
2023-04-03T08:30:50.040Z,1.56
2023-04-03T08:35:53.007Z,1.89
2023-04-03T08:41:05.480Z,1.60
2023-04-03T08:46:12.497Z,1.57
2023-04-03T08:51:17.917Z,1.77
2023-04-03T08:56:19.733Z,1.81
2023-04-03T09:01:26.238Z,2.26
2023-04-03T09:06:33.284Z,2.05
2023-04-03T09:11:47.823Z,2.25
2023-04-03T09:16:55.215Z,2.35
2023-04-03T09:21:59.884Z,1.93
2023-04-03T09:27:05.674Z,2.00
2023-04-03T09:32:21.336Z,2.11
2023-04-03T09:37:41.106Z,2.13
2023-04-03T09:42:46.242Z,2.00
2023-04-03T09:48:05.539Z,2.43
2023-04-03T09:53:28.861Z,2.42
2023-04-03T09:58:39.441Z,2.82
2023-04-03T10:04:04.325Z,2.90
2023-04-03T10:09:17.782Z,2.42
2023-04-03T10:14:19.302Z,2.35
2023-04-03T10:19:44.413Z,2.86
2023-04-03T10:24:55.498Z,2.76
2023-04-03T10:30:04.649Z,2.67
2023-04-03T10:35:16.856Z,2.77
2023-04-03T10:40:30.607Z,2.96
2023-04-03T10:45:46.845Z,2.69
2023-04-03T10:50:54.912Z,2.56
2023-04-03T10:56:04.190Z,2.91
2023-04-03T11:01:11.452Z,2.15
2023-04-03T11:06:16.059Z,2.74
2023-04-03T11:11:23.146Z,2.89
2023-04-03T11:16:27.735Z,2.31
2023-04-03T11:21:32.997Z,1.97
2023-04-03T11:26:41.585Z,2.44
2023-04-03T11:32:02.611Z,1.94
2023-04-03T11:37:12.199Z,2.36
2023-04-03T11:42:26.671Z,2.75
2023-04-03T11:47:49.392Z,2.82
2023-04-03T11:52:59.094Z,2.74
2023-04-03T11:58:13.421Z,2.80
2023-04-03T12:03:34.199Z,3.06
2023-04-03T12:08:45.645Z,3.23
2023-04-03T12:14:05.557Z,3.45
2023-04-03T12:19:41.222Z,2.29
2023-04-03T12:24:46.093Z,2.53
2023-04-03T12:29:56.235Z,2.83
2023-04-03T12:35:07.449Z,3.25
2023-04-03T12:40:17.412Z,3.52
2023-04-03T12:45:22.189Z,2.70
2023-04-03T12:50:26.202Z,2.81
2023-04-03T12:55:27.782Z,3.01
2023-04-03T13:00:33.419Z,2.77
2023-04-03T13:05:36.665Z,3.53
2023-04-03T13:10:48.760Z,2.42
2023-04-03T13:15:51.689Z,2.83
2023-04-03T13:20:57.388Z,3.38
2023-04-03T13:25:59.657Z,2.99
2023-04-03T13:31:08.110Z,3.26
2023-04-03T13:36:18.798Z,2.77
2023-04-03T13:41:26.389Z,3.69
2023-04-03T13:46:29.317Z,4.05
2023-04-03T13:51:31.274Z,4.55
2023-04-03T13:56:34.438Z,4.45
2023-04-03T14:01:44.837Z,3.92
2023-04-03T14:06:47.150Z,3.50
2023-04-03T14:11:50.485Z,3.80
2023-04-03T14:16:56.905Z,3.08
2023-04-03T14:22:00.901Z,2.99
2023-04-03T14:27:03.254Z,4.33
2023-04-03T14:32:14.426Z,4.92
2023-04-03T14:37:20.309Z,3.91
2023-04-03T14:42:24.361Z,3.16
2023-04-03T14:47:31.699Z,3.01
2023-04-03T14:52:35.129Z,2.46
2023-04-03T14:57:38.792Z,2.72
2023-04-03T15:02:42.078Z,2.71
2023-04-03T15:07:54.642Z,3.86
2023-04-03T15:12:56.852Z,3.87
2023-04-03T15:18:00.226Z,4.47
2023-04-03T15:23:02.059Z,4.27
2023-04-03T15:28:03.730Z,3.36
2023-04-03T15:33:07.024Z,3.10
2023-04-03T15:38:08.936Z,3.14
2023-04-03T15:43:11.239Z,3.62
2023-04-03T15:48:15.232Z,3.54
2023-04-03T15:53:16.799Z,2.80
2023-04-03T15:58:18.352Z,3.13
2023-04-03T16:03:22.185Z,2.80
2023-04-03T16:08:24.003Z,3.37
2023-04-03T16:13:25.525Z,3.82
2023-04-03T16:18:29.249Z,3.57
2023-04-03T16:23:30.775Z,2.89
2023-04-03T16:28:32.413Z,3.61
2023-04-03T16:33:35.612Z,3.67
2023-04-03T16:38:37.380Z,3.54
2023-04-03T16:43:38.980Z,2.77
2023-04-03T16:48:41.854Z,2.57
2023-04-03T16:53:44.392Z,2.41
2023-04-03T16:58:45.913Z,2.97
2023-04-03T17:03:49.427Z,2.61
2023-04-03T17:08:52.559Z,2.78
2023-04-03T17:13:54.177Z,2.36
2023-04-03T17:18:57.550Z,2.32
2023-04-03T17:24:02.429Z,2.11
2023-04-03T17:29:04.630Z,2.22
2023-04-03T17:34:07.720Z,2.44
2023-04-03T17:39:09.659Z,2.26
2023-04-03T17:44:11.581Z,2.23
2023-04-03T17:49:14.506Z,2.54
2023-04-03T17:54:16.180Z,1.88
2023-04-03T17:59:18.443Z,1.77
2023-04-03T18:04:21.388Z,2.35
2023-04-03T18:09:26.691Z,1.82
2023-04-03T18:14:28.880Z,1.78
2023-04-03T18:19:32.301Z,1.59
2023-04-03T18:24:34.624Z,1.74
2023-04-03T18:29:38.070Z,1.72
2023-04-03T18:34:41.030Z,1.69
2023-04-03T18:39:42.731Z,1.56
2023-04-03T18:44:47.934Z,1.41
2023-04-03T18:49:50.817Z,1.55
2023-04-03T18:54:52.526Z,1.54
2023-04-03T18:59:54.138Z,1.92
2023-04-03T19:04:57.030Z,1.52
2023-04-03T19:09:58.838Z,1.42
2023-04-03T19:15:00.382Z,1.29
2023-04-03T19:20:03.679Z,1.42
2023-04-03T19:25:07.094Z,1.27
2023-04-03T19:30:10.979Z,1.48
2023-04-03T19:35:14.155Z,1.50
2023-04-03T19:40:15.877Z,1.46
2023-04-03T19:45:17.613Z,1.25
2023-04-03T19:50:20.526Z,1.13
2023-04-03T19:55:22.036Z,1.35
2023-04-03T20:00:23.881Z,1.48
2023-04-03T20:05:26.897Z,1.17
2023-04-03T20:10:28.372Z,1.35
2023-04-03T20:15:29.812Z,1.13
2023-04-03T20:20:32.688Z,1.56
2023-04-03T20:30:39.405Z,1.80
2023-04-03T20:35:42.427Z,1.76
2023-04-03T20:40:44.022Z,1.68
2023-04-03T20:45:45.535Z,2.13
2023-04-03T20:50:48.526Z,1.59
2023-04-03T20:55:56.526Z,1.84
2023-04-03T21:00:58.168Z,1.48
2023-04-03T21:05:59.567Z,1.63
2023-04-03T21:11:38.354Z,1.65
2023-04-03T21:16:39.668Z,1.59
2023-04-03T21:21:42.942Z,1.31
2023-04-03T21:26:45.071Z,1.31
2023-04-03T21:31:47.689Z,1.13
2023-04-03T21:36:50.671Z,0.58
2023-04-03T21:41:52.331Z,0.70
2023-04-03T21:46:53.800Z,0.63
2023-04-03T21:51:56.680Z,0.25
2023-04-03T21:56:58.451Z,0.32
2023-04-03T22:02:01.706Z,-0.01
2023-04-03T22:07:04.528Z,-0.12
2023-04-03T22:12:06.279Z,-0.12
2023-04-03T22:17:07.840Z,-0.42
2023-04-03T22:22:10.660Z,-0.22
2023-04-03T22:27:12.102Z,-0.75
2023-04-03T22:32:13.609Z,-0.53
2023-04-03T22:37:16.513Z,-0.89
2023-04-03T22:42:17.965Z,-0.64
2023-04-03T22:47:19.450Z,-0.57
2023-04-03T22:52:22.488Z,-0.48
2023-04-03T22:57:23.989Z,-0.68
2023-04-03T23:02:25.509Z,-0.62
2023-04-03T23:07:28.292Z,-0.63
2023-04-03T23:12:29.852Z,-0.94
2023-04-03T23:17:31.358Z,-1.00
2023-04-03T23:22:34.165Z,-1.09
2023-04-03T23:27:35.655Z,-1.20
2023-04-03T23:32:37.193Z,-1.33
2023-04-03T23:37:40.025Z,-1.41
2023-04-03T23:42:42.016Z,-1.29
2023-04-03T23:47:43.520Z,-1.55
2023-04-03T23:52:46.411Z,-1.41
2023-04-03T23:57:47.856Z,-1.60
